Time;durP1;ratioP1;P1;durP2;ratioP2;P2;SDS_P1;SDS_P2;PMS_P1;PMS_P2;Temp;Humidity;BMP_temperature;BMP_pressure;BME280_temperature;BME280_humidity;BME280_pressure;Samples;Min_cycle;Max_cycle;Signal;HPM_P1;HPM_P2
2020/12/12 00:02:02;;;;;;;99.97;26.83;;;-0.40;99.90;;;;;;4456762;28;659142;-69
2020/12/12 00:04:49;;;;;;;77.27;22.07;;;-0.50;99.90;;;;;;4436179;28;660575;-68
2020/12/12 00:07:36;;;;;;;93.77;23.40;;;-0.50;99.90;;;;;;4466813;28;659476;-69
2020/12/12 00:10:26;;;;;;;99.47;23.47;;;-0.50;99.90;;;;;;4437499;28;658684;-69
2020/12/12 00:13:14;;;;;;;99.53;23.37;;;-0.60;99.90;;;;;;4436939;28;659587;-69
2020/12/12 00:16:01;;;;;;;89.63;24.40;;;-0.60;99.90;;;;;;4451411;28;658898;-70
2020/12/12 00:18:49;;;;;;;84.57;25.67;;;-0.60;99.90;;;;;;4441438;28;658369;-68
2020/12/12 00:21:36;;;;;;;97.07;25.13;;;-0.60;99.90;;;;;;4455305;28;658909;-69
2020/12/12 00:24:23;;;;;;;97.60;23.80;;;-0.70;99.90;;;;;;4439680;28;658876;-69
2020/12/12 00:27:10;;;;;;;104.20;25.05;;;-0.70;99.90;;;;;;4455217;28;660793;-69
2020/12/12 00:29:58;;;;;;;108.47;25.33;;;-0.60;99.90;;;;;;4437573;28;660025;-66
2020/12/12 00:32:45;;;;;;;94.83;24.93;;;-0.70;99.90;;;;;;4462380;28;661764;-70
2020/12/12 00:35:33;;;;;;;78.03;24.23;;;-0.70;99.90;;;;;;4441033;28;658738;-65
2020/12/12 00:38:20;;;;;;;119.68;21.67;;;-0.70;99.90;;;;;;4458527;28;660358;-70
2020/12/12 00:41:07;;;;;;;118.38;21.63;;;-0.70;99.90;;;;;;4431867;28;659559;-68
2020/12/12 00:43:54;;;;;;;299.80;27.90;;;-0.60;99.90;;;;;;4457999;28;661214;-69
2020/12/12 00:46:42;;;;;;;74.30;17.77;;;-0.60;99.90;;;;;;4450570;28;659429;-69
2020/12/12 00:49:29;;;;;;;83.93;17.83;;;-0.40;99.90;;;;;;4431518;28;659547;-69
2020/12/12 00:52:17;;;;;;;96.83;19.50;;;-0.50;99.90;;;;;;4450279;28;659176;-70
2020/12/12 00:55:04;;;;;;;83.97;21.17;;;-0.50;99.90;;;;;;4446943;28;659518;-69
2020/12/12 00:57:51;;;;;;;96.57;21.83;;;-0.50;99.90;;;;;;4452834;28;659145;-70
2020/12/12 01:00:38;;;;;;;81.73;22.17;;;-0.60;99.90;;;;;;4441366;28;660005;-69
2020/12/12 01:03:25;;;;;;;115.50;22.17;;;-0.60;99.90;;;;;;4450844;28;660237;-69
2020/12/12 01:06:13;;;;;;;53.27;15.77;;;-0.60;99.90;;;;;;4437512;28;660595;-66
2020/12/12 01:09:00;;;;;;;100.63;20.13;;;-0.50;99.90;;;;;;4452698;28;660557;-70
2020/12/12 01:11:47;;;;;;;87.90;21.20;;;-0.60;99.90;;;;;;4439541;28;659520;-68
2020/12/12 01:14:34;;;;;;;113.67;23.40;;;-0.60;99.90;;;;;;4452835;28;659248;-69
2020/12/12 01:17:21;;;;;;;118.07;23.87;;;-0.70;99.90;;;;;;4451211;28;659653;-70
2020/12/12 01:20:08;;;;;;;100.10;20.87;;;-0.70;99.90;;;;;;4429204;28;659637;-68
2020/12/12 01:22:55;;;;;;;90.83;20.63;;;-0.70;99.90;;;;;;4456877;28;661487;-68
2020/12/12 01:25:43;;;;;;;89.83;19.33;;;-0.60;99.90;;;;;;4430227;28;659733;-68
2020/12/12 01:28:30;;;;;;;117.93;20.93;;;-0.70;99.90;;;;;;4458657;28;658975;-69
2020/12/12 01:31:18;;;;;;;89.30;21.10;;;-0.60;99.90;;;;;;4442583;28;659452;-68
2020/12/12 01:34:05;;;;;;;115.33;22.40;;;-0.50;99.90;;;;;;4457390;28;660462;-68
2020/12/12 01:36:52;;;;;;;97.37;22.50;;;-0.50;99.90;;;;;;4444596;28;660678;-67
2020/12/12 01:39:39;;;;;;;78.63;18.17;;;-0.50;99.90;;;;;;4449325;28;660096;-69
2020/12/12 01:42:27;;;;;;;82.33;20.67;;;-0.40;99.90;;;;;;4449172;28;659578;-70
2020/12/12 01:45:14;;;;;;;165.03;22.53;;;-0.50;99.90;;;;;;4437375;28;660000;-69
2020/12/12 01:48:01;;;;;;;89.23;21.57;;;-0.50;99.90;;;;;;4457242;28;659646;-69
2020/12/12 01:50:48;;;;;;;68.77;18.23;;;-0.50;99.90;;;;;;4438425;28;658637;-69
2020/12/12 01:53:35;;;;;;;83.22;19.75;;;-0.60;99.90;;;;;;4457528;28;659393;-70
2020/12/12 01:56:22;;;;;;;72.60;19.50;;;-0.50;99.90;;;;;;4440128;28;658432;-67
2020/12/12 01:59:10;;;;;;;54.97;18.02;;;-0.60;99.90;;;;;;4470401;28;658512;-69
2020/12/12 02:01:58;;;;;;;55.67;18.80;;;-0.60;99.90;;;;;;4440338;28;658629;-67
2020/12/12 02:04:48;;;;;;;59.63;17.43;;;-0.60;99.90;;;;;;4456599;28;660277;-69
2020/12/12 02:07:35;;;;;;;60.43;19.90;;;-0.70;99.90;;;;;;4433916;28;659221;-69
2020/12/12 02:10:22;;;;;;;49.77;17.67;;;-0.80;99.90;;;;;;4447578;28;658557;-67
2020/12/12 02:13:09;;;;;;;56.83;17.90;;;-0.90;99.90;;;;;;4452614;28;658339;-69
2020/12/12 02:15:58;;;;;;;52.53;18.77;;;-1.00;99.90;;;;;;4451251;28;658234;-69
2020/12/12 02:18:45;;;;;;;53.23;18.47;;;-1.00;99.90;;;;;;4430765;28;661154;-69
2020/12/12 02:21:33;;;;;;;55.17;18.60;;;-1.00;99.90;;;;;;4457162;28;659580;-66
2020/12/12 02:24:20;;;;;;;52.03;18.63;;;-1.10;99.90;;;;;;4453571;28;660587;-69
2020/12/12 02:27:07;;;;;;;57.93;17.53;;;-1.10;99.90;;;;;;4437592;28;661245;-66
2020/12/12 02:29:54;;;;;;;54.43;18.50;;;-1.10;99.90;;;;;;4459872;28;660505;-69
2020/12/12 02:32:42;;;;;;;51.70;18.00;;;-1.00;99.90;;;;;;4450730;28;658675;-69
2020/12/12 02:35:29;;;;;;;47.50;17.27;;;-1.00;99.90;;;;;;4456803;28;658657;-69
2020/12/12 02:38:17;;;;;;;67.03;21.17;;;-1.00;99.90;;;;;;4449358;28;660250;-69
2020/12/12 02:41:08;;;;;;;80.60;23.97;;;-1.00;99.90;;;;;;4434623;28;659875;-69
2020/12/12 02:43:55;;;;;;;62.60;20.30;;;-1.20;99.90;;;;;;4425241;28;661173;-70
2020/12/12 02:46:42;;;;;;;52.70;18.40;;;-1.30;99.90;;;;;;4437362;28;659623;-66
2020/12/12 02:49:29;;;;;;;57.40;18.43;;;-1.30;99.90;;;;;;4457442;28;658728;-69
2020/12/12 02:52:16;;;;;;;54.80;18.40;;;-1.20;99.90;;;;;;4453170;28;658881;-69
2020/12/12 02:55:04;;;;;;;49.23;19.33;;;-1.30;99.90;;;;;;4442371;28;658645;-69
2020/12/12 02:57:51;;;;;;;50.07;18.10;;;-1.40;99.90;;;;;;4461879;28;658419;-69
2020/12/12 03:00:38;;;;;;;51.37;19.03;;;-1.40;99.90;;;;;;4434019;28;658725;-69
2020/12/12 03:03:25;;;;;;;56.00;18.17;;;-1.40;99.90;;;;;;4454400;28;660089;-69
2020/12/12 03:06:12;;;;;;;49.25;17.13;;;-1.40;99.90;;;;;;4434590;28;658493;-66
2020/12/12 03:08:59;;;;;;;46.85;17.15;;;-1.30;99.90;;;;;;4455691;28;659313;-69
2020/12/12 03:11:48;;;;;;;51.93;17.50;;;-1.30;99.90;;;;;;4460614;28;658247;-70
2020/12/12 03:14:35;;;;;;;44.83;17.17;;;-1.20;99.90;;;;;;4437827;28;660467;-69
2020/12/12 03:17:21;;;;;;;46.63;16.90;;;-1.20;99.90;;;;;;4462001;28;658502;-70
2020/12/12 03:20:08;;;;;;;46.20;15.93;;;-1.10;99.90;;;;;;4441443;28;659429;-69
2020/12/12 03:22:55;;;;;;;57.40;18.77;;;-1.10;99.90;;;;;;4459808;28;658484;-69
2020/12/12 03:25:42;;;;;;;58.37;19.23;;;-1.10;99.90;;;;;;4433221;28;658619;-66
2020/12/12 03:28:30;;;;;;;50.03;16.47;;;-1.20;99.90;;;;;;4457012;28;660713;-68
2020/12/12 03:31:17;;;;;;;58.37;19.53;;;-1.20;99.90;;;;;;4438273;28;658834;-66
2020/12/12 03:34:04;;;;;;;54.93;17.83;;;-1.10;99.90;;;;;;4460942;28;659347;-70
2020/12/12 03:36:51;;;;;;;46.83;17.10;;;-1.20;99.90;;;;;;4454917;28;659706;-70
2020/12/12 03:39:38;;;;;;;44.77;16.93;;;-1.20;99.90;;;;;;4448323;28;658669;-68
2020/12/12 03:42:25;;;;;;;54.53;17.97;;;-1.20;99.90;;;;;;4458476;28;660362;-69
2020/12/12 03:45:13;;;;;;;46.37;17.80;;;-1.20;99.90;;;;;;4458814;28;659595;-66
2020/12/12 03:48:00;;;;;;;45.30;17.77;;;-1.20;99.90;;;;;;4461095;28;659665;-70
2020/12/12 03:50:47;;;;;;;54.50;17.40;;;-1.30;99.90;;;;;;4451252;28;660129;-67
2020/12/12 03:53:34;;;;;;;57.97;18.60;;;-1.40;99.90;;;;;;4463618;28;659773;-69
2020/12/12 03:56:21;;;;;;;49.72;18.98;;;-1.30;99.90;;;;;;4466270;28;659700;-69
2020/12/12 03:59:08;;;;;;;54.97;18.80;;;-1.40;99.90;;;;;;4435477;28;658450;-69
2020/12/12 04:01:56;;;;;;;41.47;15.47;;;-1.40;99.90;;;;;;4454056;28;659658;-69
2020/12/12 04:04:43;;;;;;;51.10;18.75;;;-1.40;99.90;;;;;;4437748;28;658635;-69
2020/12/12 04:07:30;;;;;;;54.00;18.33;;;-1.40;99.90;;;;;;4462543;28;660088;-69
2020/12/12 04:10:17;;;;;;;51.43;18.37;;;-1.50;99.90;;;;;;4441708;28;658678;-67
2020/12/12 04:13:04;;;;;;;54.90;18.47;;;-1.50;99.90;;;;;;4462041;28;657968;-70
2020/12/12 04:15:51;;;;;;;58.23;18.90;;;-1.50;99.90;;;;;;4458473;28;658174;-69
2020/12/12 04:18:39;;;;;;;50.67;18.57;;;-1.50;99.90;;;;;;4440022;28;658909;-69
2020/12/12 04:21:26;;;;;;;50.53;18.30;;;-1.50;99.90;;;;;;4451175;28;658863;-70
2020/12/12 04:24:13;;;;;;;51.33;16.73;;;-1.50;99.90;;;;;;4432042;28;658904;-69
2020/12/12 04:27:00;;;;;;;45.27;16.77;;;-1.60;99.90;;;;;;4458833;28;660131;-69
2020/12/12 04:29:47;;;;;;;47.63;17.30;;;-1.60;99.90;;;;;;4440782;28;658655;-67
2020/12/12 04:32:34;;;;;;;46.53;16.60;;;-1.60;99.90;;;;;;4457281;28;658216;-69
2020/12/12 04:35:22;;;;;;;46.67;15.63;;;-1.70;99.90;;;;;;4461510;28;658924;-69
2020/12/12 04:38:09;;;;;;;46.43;17.47;;;-1.70;99.90;;;;;;4435763;28;660722;-69
2020/12/12 04:40:57;;;;;;;50.80;17.87;;;-1.70;99.90;;;;;;4458567;28;659472;-69
2020/12/12 04:43:44;;;;;;;78.40;18.30;;;-1.80;99.90;;;;;;4427321;28;660585;-70
2020/12/12 04:46:31;;;;;;;53.13;17.63;;;-1.80;99.90;;;;;;4450948;28;659038;-70
2020/12/12 04:49:18;;;;;;;45.83;16.93;;;-1.80;99.90;;;;;;4422463;28;658317;-69
2020/12/12 04:52:07;;;;;;;48.97;17.97;;;-1.70;99.90;;;;;;4448721;28;659586;-70
2020/12/12 04:54:54;;;;;;;52.03;16.43;;;-1.70;99.90;;;;;;4416915;28;658843;-69
2020/12/12 04:57:40;;;;;;;51.73;17.90;;;-1.70;99.90;;;;;;4449823;28;658922;-70
2020/12/12 05:00:27;;;;;;;52.67;17.57;;;-1.80;99.90;;;;;;4422992;28;659296;-69
2020/12/12 05:03:15;;;;;;;46.03;16.40;;;-1.80;99.90;;;;;;4449774;28;660483;-70
2020/12/12 05:06:02;;;;;;;47.77;17.27;;;-1.70;99.90;;;;;;4424932;28;659816;-66
2020/12/12 05:08:50;;;;;;;47.27;16.70;;;-1.70;99.90;;;;;;4452780;28;659641;-70
2020/12/12 05:11:38;;;;;;;43.73;16.13;;;-1.60;99.90;;;;;;4431651;28;658616;-66
2020/12/12 05:14:25;;;;;;;51.23;17.03;;;-1.50;99.90;;;;;;4448595;28;660656;-69
2020/12/12 05:17:12;;;;;;;50.47;17.77;;;-1.50;99.90;;;;;;4440986;28;659161;-66
2020/12/12 05:19:59;;;;;;;46.67;15.40;;;-1.50;99.90;;;;;;4442067;28;659265;-70
2020/12/12 05:22:46;;;;;;;57.97;19.50;;;-1.40;99.90;;;;;;4447160;28;658378;-68
2020/12/12 05:25:34;;;;;;;56.20;17.33;;;-1.50;99.90;;;;;;4429321;28;659242;-69
2020/12/12 05:28:22;;;;;;;51.37;16.00;;;-1.50;99.90;;;;;;4441030;28;659140;-69
2020/12/12 05:31:09;;;;;;;53.93;17.93;;;-1.40;99.90;;;;;;4419844;28;660141;-69
2020/12/12 05:33:56;;;;;;;156.60;22.27;;;-1.40;99.90;;;;;;4441124;28;659255;-69
2020/12/12 05:36:44;;;;;;;52.87;19.13;;;-1.30;99.90;;;;;;4425613;28;659785;-69
2020/12/12 05:39:31;;;;;;;53.22;19.30;;;-1.20;99.90;;;;;;4444801;28;659092;-69
2020/12/12 05:42:20;;;;;;;64.63;19.43;;;-1.20;99.90;;;;;;4413695;28;658594;-69
2020/12/12 05:45:07;;;;;;;53.07;18.40;;;-1.30;99.90;;;;;;4427455;28;658491;-68
2020/12/12 05:47:54;;;;;;;48.23;15.43;;;-1.30;99.90;;;;;;4453127;28;659762;-69
2020/12/12 05:50:41;;;;;;;55.40;17.43;;;-1.10;99.90;;;;;;4464558;28;659419;-70
2020/12/12 05:53:28;;;;;;;46.83;15.20;;;-1.10;99.90;;;;;;4431395;28;659700;-69
2020/12/12 05:56:15;;;;;;;54.15;17.00;;;-1.20;99.90;;;;;;4455866;28;659842;-69
2020/12/12 05:59:03;;;;;;;56.20;16.50;;;-1.20;99.90;;;;;;4432269;28;659073;-67
2020/12/12 06:01:53;;;;;;;54.67;17.47;;;-1.20;99.90;;;;;;4458726;28;659984;-69
2020/12/12 06:04:43;;;;;;;52.13;17.23;;;-1.10;99.90;;;;;;4435300;28;659545;-69
2020/12/12 06:07:32;;;;;;;52.20;18.13;;;-1.10;99.90;;;;;;4427085;28;660166;-70
2020/12/12 06:10:19;;;;;;;171.23;32.03;;;-1.20;99.90;;;;;;4430181;28;660276;-70
2020/12/12 06:13:06;;;;;;;62.60;17.90;;;-1.10;99.90;;;;;;4457001;28;660703;-70
2020/12/12 06:15:54;;;;;;;64.23;14.27;;;-1.00;99.90;;;;;;4433037;28;659672;-69
2020/12/12 06:18:48;;;;;;;157.90;21.33;;;-0.90;99.90;;;;;;4460140;28;659500;-69
2020/12/12 06:21:36;;;;;;;55.30;19.00;;;-0.90;99.90;;;;;;4431467;28;661997;-70
2020/12/12 06:24:22;;;;;;;61.03;20.37;;;-0.80;99.90;;;;;;4431396;28;660252;-68
2020/12/12 06:27:09;;;;;;;68.13;19.83;;;-0.80;99.90;;;;;;4463991;28;660412;-69
2020/12/12 06:29:56;;;;;;;77.53;21.97;;;-0.80;99.90;;;;;;4457949;28;659581;-70
2020/12/12 06:32:44;;;;;;;65.03;17.87;;;-0.80;99.90;;;;;;4425678;28;661213;-70
2020/12/12 06:35:32;;;;;;;58.00;15.33;;;-0.80;99.90;;;;;;4455189;28;659880;-70
2020/12/12 06:38:26;;;;;;;60.73;13.90;;;-0.90;99.90;;;;;;4433624;28;661618;-69
2020/12/12 06:41:13;;;;;;;60.40;13.53;;;-0.90;99.90;;;;;;4410662;28;660535;-69
2020/12/12 06:44:00;;;;;;;35.57;12.27;;;-0.90;99.90;;;;;;4460007;28;660824;-70
2020/12/12 06:46:50;;;;;;;47.60;15.83;;;-1.00;99.90;;;;;;4418441;28;659804;-66
2020/12/12 06:49:41;;;;;;;53.67;15.57;;;-1.00;99.90;;;;;;4415135;28;659675;-66
2020/12/12 06:52:29;;;;;;;53.30;15.40;;;-0.90;99.90;;;;;;4409236;28;660002;-70
2020/12/12 06:55:17;;;;;;;54.03;15.43;;;-1.00;99.90;;;;;;4436268;28;660723;-70
2020/12/12 06:58:22;;;;;;;52.73;17.57;;;-0.90;99.90;;;;;;4407795;28;661455;-70
2020/12/12 07:01:32;;;;;;;49.27;16.67;;;-0.90;99.90;;;;;;4390217;28;660836;-70
2020/12/12 07:04:23;;;;;;;59.43;15.90;;;-0.90;99.90;;;;;;4389445;28;660883;-70
2020/12/12 07:07:12;;;;;;;47.95;16.73;;;-0.90;99.90;;;;;;4407821;28;660727;-70
2020/12/12 07:09:58;;;;;;;46.90;16.00;;;-0.90;99.90;;;;;;4416380;28;659630;-70
2020/12/12 07:12:46;;;;;;;70.23;23.27;;;-0.90;99.90;;;;;;4428829;28;661548;-70
2020/12/12 07:15:33;;;;;;;50.27;19.10;;;-1.00;99.90;;;;;;4423899;28;659767;-69
2020/12/12 07:18:22;;;;;;;48.57;16.47;;;-1.00;99.90;;;;;;4442296;28;661338;-69
2020/12/12 07:21:11;;;;;;;46.00;17.93;;;-1.00;99.90;;;;;;4413273;28;661253;-70
2020/12/12 07:23:59;;;;;;;47.30;17.27;;;-0.90;99.90;;;;;;4410620;28;659854;-69
2020/12/12 07:26:46;;;;;;;58.67;17.43;;;-0.90;99.90;;;;;;4443793;28;660162;-69
2020/12/12 07:29:33;;;;;;;46.33;15.47;;;-0.90;99.90;;;;;;4422379;28;660637;-69
2020/12/12 07:32:20;;;;;;;56.73;16.23;;;-1.00;99.90;;;;;;4433972;28;660322;-69
2020/12/12 07:35:07;;;;;;;44.83;15.73;;;-1.00;99.90;;;;;;4421519;28;659785;-65
2020/12/12 07:38:01;;;;;;;47.35;17.52;;;-0.90;99.90;;;;;;4432249;28;659202;-69
2020/12/12 07:40:49;;;;;;;45.05;16.33;;;-0.90;99.90;;;;;;4384840;28;661424;-69
2020/12/12 07:43:36;;;;;;;45.27;16.47;;;-0.80;99.90;;;;;;4445748;28;659860;-69
2020/12/12 07:46:37;;;;;;;48.30;15.40;;;-0.90;99.90;;;;;;4429414;28;659570;-69
2020/12/12 07:49:24;;;;;;;58.23;17.57;;;-0.60;99.90;;;;;;4413378;28;660254;-69
2020/12/12 07:52:12;;;;;;;260.30;25.43;;;-0.70;99.90;;;;;;4454629;28;659939;-70
2020/12/12 07:55:03;;;;;;;53.73;18.73;;;-0.70;99.90;;;;;;4430397;28;661642;-69
2020/12/12 07:57:55;;;;;;;46.93;17.13;;;-0.70;99.90;;;;;;4434701;28;660973;-69
2020/12/12 08:00:42;;;;;;;44.38;16.52;;;-0.60;99.90;;;;;;4410498;28;659650;-67
2020/12/12 08:03:29;;;;;;;47.37;18.67;;;-0.60;99.90;;;;;;4461835;28;659239;-69
2020/12/12 08:06:16;;;;;;;48.40;17.63;;;-0.60;99.90;;;;;;4450906;28;660082;-68
2020/12/12 08:09:03;;;;;;;53.97;17.90;;;-0.50;99.90;;;;;;4442459;27;660876;-68
2020/12/12 08:11:57;;;;;;;52.87;18.23;;;-0.60;99.90;;;;;;4448961;28;661670;-68
2020/12/12 08:14:46;;;;;;;56.33;19.87;;;-0.50;99.90;;;;;;4415547;28;660679;-69
2020/12/12 08:17:34;;;;;;;57.33;20.33;;;-0.40;99.90;;;;;;4436105;28;662075;-69
2020/12/12 08:20:24;;;;;;;27.20;11.73;;;-0.40;99.90;;;;;;4458550;28;660524;-68
2020/12/12 08:23:13;;;;;;;54.50;18.73;;;-0.40;99.90;;;;;;4435710;28;660244;-70
2020/12/12 08:26:00;;;;;;;48.23;18.20;;;-0.40;99.90;;;;;;4430651;28;661585;-69
2020/12/12 08:28:47;;;;;;;51.80;19.93;;;-0.40;99.90;;;;;;4455706;28;659962;-66
2020/12/12 08:31:39;;;;;;;54.17;20.90;;;-0.40;99.90;;;;;;4453981;28;659223;-69
2020/12/12 08:34:26;;;;;;;49.03;19.13;;;-0.40;99.90;;;;;;4426062;27;660628;-69
2020/12/12 08:37:18;;;;;;;52.63;21.17;;;-0.30;99.90;;;;;;4440592;27;660924;-68
2020/12/12 08:40:07;;;;;;;55.10;21.97;;;-0.30;99.90;;;;;;4446270;27;661152;-69
2020/12/12 08:42:59;;;;;;;63.47;23.93;;;-0.30;99.90;;;;;;4438894;27;660798;-69
2020/12/12 08:45:55;;;;;;;59.87;22.13;;;-0.20;99.90;;;;;;4429262;28;660559;-69
2020/12/12 08:48:43;;;;;;;66.30;24.73;;;-0.20;99.90;;;;;;4413447;28;659964;-68
2020/12/12 08:51:31;;;;;;;54.97;19.23;;;-0.10;99.90;;;;;;4461676;28;660411;-70
2020/12/12 08:54:18;;;;;;;48.03;18.30;;;0.00;99.90;;;;;;4438287;28;661193;-69
2020/12/12 08:57:15;;;;;;;41.90;17.50;;;0.10;99.90;;;;;;4460019;28;660260;-69
2020/12/12 09:00:04;;;;;;;44.00;16.97;;;0.30;99.90;;;;;;4407018;28;659046;-67
2020/12/12 09:02:59;;;;;;;51.97;19.13;;;0.20;99.90;;;;;;4443435;28;658477;-70
2020/12/12 09:05:47;;;;;;;52.17;17.87;;;0.20;99.90;;;;;;4418777;28;658518;-70
2020/12/12 09:08:34;;;;;;;72.10;21.73;;;0.30;99.90;;;;;;4436955;28;658915;-70
2020/12/12 09:11:21;;;;;;;41.77;16.47;;;0.30;99.90;;;;;;4469067;28;658909;-70
2020/12/12 09:14:08;;;;;;;54.97;19.03;;;0.40;99.90;;;;;;4435218;28;658915;-69
2020/12/12 09:16:56;;;;;;;44.33;16.23;;;0.40;99.90;;;;;;4457879;28;659603;-70
2020/12/12 09:19:43;;;;;;;58.53;21.40;;;0.40;99.90;;;;;;4436789;28;658671;-69
2020/12/12 09:22:31;;;;;;;48.23;18.17;;;0.40;99.90;;;;;;4458290;28;660976;-70
2020/12/12 09:25:17;;;;;;;52.23;20.03;;;0.40;99.90;;;;;;4443146;28;659291;-68
2020/12/12 09:28:04;;;;;;;50.23;19.57;;;0.40;99.90;;;;;;4457929;28;659912;-70
2020/12/12 09:30:51;;;;;;;58.80;21.03;;;0.40;99.90;;;;;;4450471;28;659208;-69
2020/12/12 09:33:38;;;;;;;58.73;20.13;;;0.30;99.90;;;;;;4439353;28;661137;-69
2020/12/12 09:36:25;;;;;;;73.87;23.77;;;0.30;99.90;;;;;;4461965;28;659814;-70
2020/12/12 09:39:13;;;;;;;63.28;20.95;;;0.20;99.90;;;;;;4442335;28;659708;-67
2020/12/12 09:42:00;;;;;;;57.87;21.50;;;0.20;99.90;;;;;;4454326;28;659915;-69
2020/12/12 09:44:47;;;;;;;77.10;27.20;;;0.20;99.90;;;;;;4444275;28;658864;-67
2020/12/12 09:47:35;;;;;;;66.50;24.70;;;0.20;99.90;;;;;;4456296;28;660320;-69
2020/12/12 09:50:33;;;;;;;51.43;21.27;;;0.30;99.90;;;;;;4461253;28;658677;-70
2020/12/12 09:53:20;;;;;;;57.70;21.23;;;0.30;99.90;;;;;;4436508;28;659868;-69
2020/12/12 09:56:08;;;;;;;61.35;21.38;;;0.30;99.90;;;;;;4448816;28;659019;-68
2020/12/12 09:58:55;;;;;;;45.40;17.37;;;0.30;99.90;;;;;;4463809;28;660869;-70
2020/12/12 10:01:42;;;;;;;52.63;19.77;;;0.40;99.90;;;;;;4443143;28;658766;-68
2020/12/12 10:04:29;;;;;;;49.83;17.60;;;0.50;99.90;;;;;;4432146;28;659767;-70
2020/12/12 10:07:17;;;;;;;41.87;17.00;;;0.60;99.90;;;;;;4464688;28;658305;-69
2020/12/12 10:10:04;;;;;;;41.40;17.17;;;0.70;99.90;;;;;;4439463;28;659370;-69
2020/12/12 10:12:52;;;;;;;49.17;19.93;;;0.70;99.90;;;;;;4464970;28;659061;-70
2020/12/12 10:15:39;;;;;;;51.10;20.13;;;0.80;99.90;;;;;;4438617;28;660521;-70
2020/12/12 10:18:26;;;;;;;60.50;22.63;;;0.80;99.90;;;;;;4463238;28;659853;-68
2020/12/12 10:21:13;;;;;;;52.43;19.37;;;0.90;99.90;;;;;;4441748;28;658794;-69
2020/12/12 10:24:00;;;;;;;38.50;15.70;;;1.00;99.90;;;;;;4465091;28;660441;-69
2020/12/12 10:26:47;;;;;;;44.00;16.67;;;1.20;99.90;;;;;;4452866;28;660281;-67
2020/12/12 10:29:35;;;;;;;35.27;14.97;;;1.10;99.90;;;;;;4461809;28;658883;-70
2020/12/12 10:32:22;;;;;;;42.88;14.18;;;1.10;99.90;;;;;;4437409;28;658868;-67
2020/12/12 10:35:10;;;;;;;46.87;16.57;;;1.00;99.90;;;;;;4463394;28;658801;-68
2020/12/12 10:37:57;;;;;;;43.00;17.10;;;1.10;99.90;;;;;;4451682;28;658807;-67
2020/12/12 10:40:48;;;;;;;58.27;19.70;;;1.10;99.90;;;;;;4470090;28;659565;-69
2020/12/12 10:43:35;;;;;;;54.80;20.37;;;1.10;99.90;;;;;;4432789;28;659705;-70
2020/12/12 10:46:23;;;;;;;55.60;20.87;;;1.10;99.90;;;;;;4457742;28;658498;-69
2020/12/12 10:49:10;;;;;;;64.00;21.37;;;1.10;99.90;;;;;;4456875;28;660242;-69
2020/12/12 10:51:57;;;;;;;57.67;19.93;;;1.00;99.90;;;;;;4436286;28;658911;-66
2020/12/12 10:54:47;;;;;;;74.40;24.33;;;1.00;99.90;;;;;;4454455;28;658074;-68
2020/12/12 10:57:34;;;;;;;64.67;21.70;;;1.00;99.90;;;;;;4426069;28;660006;-69
2020/12/12 11:00:24;;;;;;;54.43;20.80;;;1.10;99.90;;;;;;4447283;28;659520;-69
2020/12/12 11:03:12;;;;;;;50.17;16.77;;;1.20;99.90;;;;;;4435828;28;659658;-70
2020/12/12 11:05:59;;;;;;;49.10;18.27;;;1.30;99.90;;;;;;4431561;28;659557;-69
2020/12/12 11:08:46;;;;;;;61.40;22.07;;;1.30;99.90;;;;;;4454896;28;659125;-69
2020/12/12 11:11:33;;;;;;;59.53;21.10;;;1.30;99.90;;;;;;4434446;28;658755;-69
2020/12/12 11:14:20;;;;;;;57.20;20.47;;;1.40;99.90;;;;;;4461895;28;660197;-69
2020/12/12 11:17:07;;;;;;;50.80;19.33;;;1.40;99.90;;;;;;4437873;28;658729;-66
2020/12/12 11:19:55;;;;;;;61.73;20.77;;;1.40;99.90;;;;;;4462745;28;659266;-69
2020/12/12 11:22:42;;;;;;;60.50;20.37;;;1.20;99.90;;;;;;4435608;28;658649;-66
2020/12/12 11:25:29;;;;;;;63.13;22.97;;;1.10;99.90;;;;;;4454895;28;659505;-69
2020/12/12 11:28:16;;;;;;;60.40;21.87;;;1.00;99.90;;;;;;4457346;28;658211;-69
2020/12/12 11:31:03;;;;;;;53.73;21.13;;;1.10;99.90;;;;;;4428523;28;659977;-69
2020/12/12 11:33:54;;;;;;;50.70;20.27;;;1.20;99.90;;;;;;4450753;28;660816;-69
2020/12/12 11:39:54;;;;;;;48.03;17.93;;;1.40;99.90;;;;;;4426187;28;659226;-68
2020/12/12 11:43:06;;;;;;;56.10;20.03;;;1.50;99.90;;;;;;4439173;28;659317;-69
2020/12/12 11:46:24;;;;;;;61.53;23.97;;;1.60;99.90;;;;;;4413176;28;659643;-69
2020/12/12 11:49:11;;;;;;;57.33;20.27;;;1.80;99.90;;;;;;4428232;28;659470;-69
2020/12/12 11:51:59;;;;;;;58.43;23.03;;;2.00;99.90;;;;;;4431789;28;658469;-68
2020/12/12 11:54:46;;;;;;;53.57;20.73;;;2.10;99.90;;;;;;4460634;28;661044;-69
2020/12/12 11:57:34;;;;;;;47.33;19.30;;;2.00;99.90;;;;;;4431116;28;658545;-68
2020/12/12 12:00:21;;;;;;;55.30;22.17;;;2.00;99.90;;;;;;4457832;28;658559;-70
2020/12/12 12:03:08;;;;;;;70.47;24.63;;;1.90;99.90;;;;;;4429531;28;659133;-69
2020/12/12 12:05:55;;;;;;;55.90;22.87;;;1.70;99.90;;;;;;4458949;28;659882;-69
2020/12/12 12:08:57;;;;;;;63.35;23.42;;;1.60;99.90;;;;;;4441261;28;660415;-66
2020/12/12 12:11:44;;;;;;;54.70;20.83;;;1.50;99.90;;;;;;4424242;28;659972;-69
2020/12/12 12:14:31;;;;;;;52.50;19.53;;;1.40;99.90;;;;;;4456706;28;659250;-69
2020/12/12 12:17:18;;;;;;;46.10;19.13;;;1.30;99.90;;;;;;4430814;28;658702;-69
2020/12/12 12:20:05;;;;;;;47.27;18.63;;;1.30;99.90;;;;;;4462992;28;660305;-69
2020/12/12 12:22:52;;;;;;;51.43;20.10;;;1.30;99.90;;;;;;4440274;28;658727;-67
2020/12/12 12:25:40;;;;;;;61.53;22.67;;;1.30;99.90;;;;;;4464609;28;659577;-69
2020/12/12 12:28:27;;;;;;;54.22;20.42;;;1.20;99.90;;;;;;4431619;28;658657;-66
2020/12/12 12:31:14;;;;;;;61.33;21.20;;;1.20;99.90;;;;;;4461880;28;658840;-69
2020/12/12 12:34:02;;;;;;;61.03;21.60;;;1.10;99.90;;;;;;4457411;28;658465;-69
2020/12/12 12:36:49;;;;;;;60.33;22.73;;;1.00;99.90;;;;;;4435088;28;659098;-69
2020/12/12 12:39:36;;;;;;;58.40;20.10;;;1.00;99.90;;;;;;4450435;28;658990;-68
2020/12/12 12:42:23;;;;;;;57.63;21.20;;;1.00;99.90;;;;;;4441178;28;658409;-68
2020/12/12 12:45:11;;;;;;;94.00;28.50;;;0.90;99.90;;;;;;4452401;28;659021;-69
2020/12/12 12:47:58;;;;;;;76.13;26.67;;;0.90;99.90;;;;;;4441482;28;658462;-69
2020/12/12 12:50:45;;;;;;;77.00;28.57;;;1.00;99.90;;;;;;4451131;28;660326;-69
2020/12/12 12:53:32;;;;;;;69.83;26.67;;;1.00;99.90;;;;;;4450470;28;659536;-66
2020/12/12 12:56:22;;;;;;;65.97;23.40;;;1.00;99.90;;;;;;4463560;28;659945;-70
2020/12/12 12:59:10;;;;;;;109.47;23.03;;;1.00;99.90;;;;;;4429361;28;660256;-68
2020/12/12 13:01:57;;;;;;;49.37;17.50;;;1.10;99.90;;;;;;4439524;28;660616;-67
2020/12/12 13:04:44;;;;;;;56.83;19.15;;;1.10;99.90;;;;;;4456727;28;660069;-69
2020/12/12 13:07:31;;;;;;;58.15;21.35;;;1.10;99.90;;;;;;4457903;28;659942;-69
2020/12/12 13:10:18;;;;;;;54.53;20.20;;;1.00;99.90;;;;;;4438150;28;658368;-69
2020/12/12 13:13:05;;;;;;;61.23;23.63;;;1.00;99.90;;;;;;4457944;28;660034;-69
2020/12/12 13:15:53;;;;;;;60.83;24.07;;;0.90;99.90;;;;;;4443911;28;659076;-66
2020/12/12 13:18:45;;;;;;;71.23;25.47;;;0.90;99.90;;;;;;4441328;28;660231;-69
2020/12/12 13:21:37;;;;;;;52.00;19.17;;;0.80;99.90;;;;;;4401432;28;660135;-65
2020/12/12 13:24:24;;;;;;;68.80;24.20;;;0.70;99.90;;;;;;4447096;28;659734;-69
2020/12/12 13:27:11;;;;;;;65.40;23.40;;;0.70;99.90;;;;;;4458229;28;659014;-69
2020/12/12 13:30:16;;;;;;;73.85;27.55;;;0.70;99.90;;;;;;4430618;28;658838;-69
2020/12/12 13:33:04;;;;;;;65.97;25.47;;;0.80;99.90;;;;;;4412500;28;660675;-69
2020/12/12 13:35:51;;;;;;;70.25;25.58;;;0.80;99.90;;;;;;4452653;28;658581;-69
2020/12/12 13:38:38;;;;;;;68.10;26.43;;;0.70;99.90;;;;;;4434875;28;658779;-68
2020/12/12 13:41:26;;;;;;;90.53;33.97;;;0.70;99.90;;;;;;4450712;28;660518;-69
2020/12/12 13:44:13;;;;;;;85.00;30.70;;;0.70;99.90;;;;;;4438906;27;658862;-69
2020/12/12 13:47:00;;;;;;;68.13;25.03;;;0.60;99.90;;;;;;4457759;28;659311;-69
2020/12/12 13:49:48;;;;;;;66.00;23.08;;;0.60;99.90;;;;;;4446522;28;658699;-67
2020/12/12 13:52:35;;;;;;;60.87;22.50;;;0.60;99.90;;;;;;4461628;28;659607;-69
2020/12/12 13:55:22;;;;;;;66.33;23.43;;;0.70;99.90;;;;;;4441047;28;658577;-66
2020/12/12 13:58:09;;;;;;;66.70;23.93;;;0.70;99.90;;;;;;4460515;28;658230;-69
2020/12/12 14:00:56;;;;;;;80.17;28.77;;;0.60;99.90;;;;;;4452262;28;658973;-69
2020/12/12 14:03:45;;;;;;;98.63;32.13;;;0.60;99.90;;;;;;4428788;28;658568;-69
2020/12/12 14:06:33;;;;;;;68.47;23.33;;;0.60;99.90;;;;;;4455972;28;658672;-66
2020/12/12 14:09:49;;;;;;;75.57;25.40;;;0.60;99.90;;;;;;4461427;28;660209;-69